Pays
Station

 

Conditions  météo  pour  Rundu  -  Namibie    Namibie

  
21 °C
    
 
 

METAR pour Rundu :

FYRU 060300Z AUTO 29003KT //// // ////// 21/20 Q1015

 

Voici le bulletin pour Rundu - Namibie.
 
Le bulletin a été fait il y a 356 heures et 13 minutes, à 03:00 UTC .
Le vent soufflait à la vitesse de 1.5 mètres par seconde de Ouest/Nord-ouest (290°).
 
La température était de 21 °C, avec un point de rosée à 20 °C.
La pression atmosphérique était de 1015 hPa.
L'humidité relative était de 94.0%.
 

 
 
 

Pays :   A   B   C   D   E   F   G   H   I   J   K   L   M   N   O   P   Q   R   S   T   U   V   W   Y   Z

 

Partenaires :  Info Météo avec Met'info
Météo Marine avec MeteoMarine.net
Infos Site  |  Infos Légales  |  Crédits  |  Confidentialité
Contactez-nous  |  Ajouter aux favoris
© 2013-2018 METAR - Tous droits réservés